createdAt,value
2022-08-25T00:01:55.124Z,14.25
2022-08-25T00:04:22.286Z,14.13
2022-08-25T00:06:49.763Z,13.95
2022-08-25T00:09:20.486Z,13.68
2022-08-25T00:11:49.237Z,13.02
2022-08-25T00:14:37.624Z,12.88
2022-08-25T00:17:05.861Z,13.13
2022-08-25T00:19:35.615Z,12.10
2022-08-25T00:22:03.471Z,13.40
2022-08-25T00:24:31.128Z,15.15
2022-08-25T00:26:59.151Z,13.60
2022-08-25T00:29:26.822Z,14.23
2022-08-25T00:31:54.888Z,14.07
2022-08-25T00:34:25.549Z,13.07
2022-08-25T00:36:52.713Z,13.35
2022-08-25T00:39:22.286Z,13.73
2022-08-25T00:41:50.730Z,12.73
2022-08-25T00:44:20.296Z,13.73
2022-08-25T00:46:49.665Z,12.98
2022-08-25T00:49:26.061Z,12.95
2022-08-25T00:52:05.977Z,14.37
2022-08-25T00:54:39.095Z,11.55
2022-08-25T00:57:08.852Z,13.18
2022-08-25T00:59:35.806Z,12.20
2022-08-25T01:02:04.448Z,12.93
2022-08-25T01:04:31.507Z,13.43
2022-08-25T01:07:00.015Z,11.77
2022-08-25T01:09:29.019Z,12.18
2022-08-25T01:11:55.930Z,11.20
2022-08-25T01:14:24.555Z,12.27
2022-08-25T01:16:53.987Z,11.82
2022-08-25T01:19:21.373Z,11.40
2022-08-25T01:21:53.327Z,12.10
2022-08-25T01:24:31.351Z,11.63
2022-08-25T01:26:58.511Z,11.68
2022-08-25T01:29:25.601Z,11.52
2022-08-25T01:31:58.554Z,12.43
2022-08-25T01:34:27.880Z,11.93
2022-08-25T01:36:56.153Z,11.38
2022-08-25T01:39:23.570Z,12.75
2022-08-25T01:42:05.468Z,11.45
2022-08-25T01:44:34.985Z,12.05
2022-08-25T01:47:03.039Z,11.63
2022-08-25T01:49:29.586Z,12.30
2022-08-25T01:52:00.749Z,11.93
2022-08-25T01:54:27.228Z,12.10
2022-08-25T01:56:53.847Z,12.25
2022-08-25T02:01:57.448Z,11.15
2022-08-25T02:04:31.981Z,11.05
2022-08-25T02:07:04.454Z,12.20
2022-08-25T02:09:31.544Z,12.25
2022-08-25T02:11:58.267Z,12.80
2022-08-25T02:14:24.950Z,12.18
2022-08-25T02:19:20.447Z,12.20
2022-08-25T02:21:47.737Z,12.73
2022-08-25T02:24:14.489Z,12.00
2022-08-25T02:26:41.774Z,12.70
2022-08-25T02:29:08.870Z,11.68
2022-08-25T02:31:36.481Z,13.70
2022-08-25T02:34:04.137Z,11.07
2022-08-25T02:36:32.205Z,12.27
2022-08-25T02:38:59.043Z,11.10
2022-08-25T02:41:31.257Z,12.20
2022-08-25T02:43:59.303Z,12.82
2022-08-25T02:46:26.161Z,13.25
2022-08-25T02:48:53.321Z,14.13
2022-08-25T02:51:22.909Z,13.52
2022-08-25T02:53:49.813Z,13.80
2022-08-25T02:56:18.488Z,15.43
2022-08-25T02:58:46.335Z,14.27
2022-08-25T03:01:14.314Z,15.32
2022-08-25T03:03:43.466Z,14.40
2022-08-25T03:06:13.031Z,13.38
2022-08-25T03:08:40.500Z,15.73
2022-08-25T03:11:07.018Z,15.25
2022-08-25T03:13:34.393Z,15.05
2022-08-25T03:16:01.947Z,13.93
2022-08-25T03:18:30.316Z,14.52
2022-08-25T03:20:57.520Z,16.13
2022-08-25T03:23:24.105Z,16.20
2022-08-25T03:26:09.313Z,14.95
2022-08-25T03:28:36.438Z,15.82
2022-08-25T03:31:03.324Z,14.35
2022-08-25T03:33:30.923Z,13.68
2022-08-25T03:35:58.370Z,14.00
2022-08-25T03:38:26.139Z,14.60
2022-08-25T03:40:53.669Z,13.10
2022-08-25T03:43:20.585Z,12.90
2022-08-25T03:45:47.911Z,13.35
2022-08-25T03:48:16.118Z,14.40
2022-08-25T03:50:50.733Z,13.25
2022-08-25T03:53:20.072Z,13.63
2022-08-25T03:55:47.256Z,14.73
2022-08-25T03:58:14.314Z,14.85
2022-08-25T04:00:41.262Z,14.85
2022-08-25T04:03:07.951Z,14.32
2022-08-25T04:08:02.627Z,13.77
2022-08-25T04:10:31.864Z,12.88
2022-08-25T04:12:58.497Z,13.43
2022-08-25T04:17:58.784Z,13.82
2022-08-25T04:20:25.477Z,13.55
2022-08-25T04:25:18.463Z,11.65
2022-08-25T04:27:44.959Z,12.07
2022-08-25T04:30:12.116Z,13.23
2022-08-25T04:32:38.654Z,12.63
2022-08-25T04:35:05.980Z,12.30
2022-08-25T04:37:33.368Z,11.95
2022-08-25T04:40:00.242Z,11.73
2022-08-25T04:42:27.467Z,11.52
2022-08-25T04:44:54.606Z,11.95
2022-08-25T04:47:22.017Z,11.23
2022-08-25T04:49:48.575Z,12.13
2022-08-25T04:52:15.591Z,11.55
2022-08-25T04:54:42.915Z,11.48
2022-08-25T04:57:09.918Z,10.88
2022-08-25T04:59:36.600Z,11.85
2022-08-25T05:04:31.285Z,10.05
2022-08-25T05:06:58.384Z,8.65
2022-08-25T05:09:25.685Z,8.05
2022-08-25T05:11:53.567Z,7.63
2022-08-25T05:14:26.447Z,7.82
2022-08-25T05:16:54.868Z,7.05
2022-08-25T05:19:21.476Z,6.75
2022-08-25T05:21:48.055Z,7.05
2022-08-25T05:24:14.563Z,6.60
2022-08-25T05:26:41.068Z,6.35
2022-08-25T05:29:07.750Z,7.60
2022-08-25T05:31:38.437Z,6.72
2022-08-25T05:34:08.547Z,6.32
2022-08-25T05:36:35.552Z,5.93
2022-08-25T05:39:02.662Z,6.80
2022-08-25T05:41:30.409Z,6.88
2022-08-25T05:43:57.236Z,6.03
2022-08-25T05:46:24.598Z,6.20
2022-08-25T05:48:51.499Z,6.70
2022-08-25T05:51:18.856Z,6.70
2022-08-25T05:53:48.235Z,6.05
2022-08-25T05:56:15.422Z,7.35
2022-08-25T05:58:43.302Z,6.65
2022-08-25T06:01:36.828Z,6.93
2022-08-25T06:04:03.642Z,6.68
2022-08-25T06:06:30.204Z,6.70
2022-08-25T06:08:56.666Z,6.47
2022-08-25T06:11:23.421Z,5.97
2022-08-25T06:13:50.065Z,7.57
2022-08-25T06:16:16.625Z,8.13
2022-08-25T06:18:43.185Z,9.02
2022-08-25T06:21:12.775Z,8.50
2022-08-25T06:23:39.968Z,9.38
2022-08-25T06:26:07.383Z,8.02
2022-08-25T06:28:33.922Z,9.65
2022-08-25T06:31:01.616Z,9.23
2022-08-25T06:33:28.560Z,9.75
2022-08-25T06:35:57.012Z,9.15
2022-08-25T06:38:24.453Z,9.25
2022-08-25T06:40:52.438Z,8.95
2022-08-25T06:43:21.786Z,9.02
2022-08-25T06:45:48.489Z,9.55
2022-08-25T06:48:15.858Z,9.63
2022-08-25T06:50:42.808Z,10.07
2022-08-25T06:53:09.764Z,10.15
2022-08-25T06:55:36.872Z,9.68
2022-08-25T06:58:04.867Z,10.95
2022-08-25T07:00:32.679Z,9.73
2022-08-25T07:03:01.165Z,11.40
2022-08-25T07:05:40.896Z,11.23
2022-08-25T07:08:11.690Z,11.23
2022-08-25T07:10:38.371Z,10.75
2022-08-25T07:13:04.848Z,11.30
2022-08-25T07:15:31.360Z,10.18
2022-08-25T07:17:57.881Z,10.27
2022-08-25T07:22:53.039Z,9.45
2022-08-25T07:25:19.528Z,9.18
2022-08-25T07:27:46.107Z,8.38
2022-08-25T07:30:12.744Z,9.57
2022-08-25T07:32:42.139Z,8.90
2022-08-25T07:35:19.146Z,8.23
2022-08-25T07:37:58.142Z,8.80
2022-08-25T07:40:31.812Z,7.75
2022-08-25T07:43:01.205Z,8.18
2022-08-25T07:45:31.106Z,8.25
2022-08-25T07:48:11.829Z,8.27
2022-08-25T07:50:43.967Z,8.15
2022-08-25T07:53:12.717Z,8.18
2022-08-25T07:55:41.781Z,8.30
2022-08-25T07:58:12.359Z,7.60
2022-08-25T08:00:40.521Z,7.55
2022-08-25T08:03:12.866Z,8.55
2022-08-25T08:05:50.540Z,8.50
2022-08-25T08:08:17.024Z,7.55
2022-08-25T08:11:03.332Z,8.02
2022-08-25T08:13:35.758Z,8.25
2022-08-25T08:16:09.738Z,8.80
2022-08-25T08:18:36.460Z,6.95
2022-08-25T08:21:03.396Z,7.80
2022-08-25T08:23:30.508Z,7.60
2022-08-25T08:25:57.152Z,8.30
2022-08-25T08:28:27.777Z,9.07
2022-08-25T08:30:54.463Z,8.20
2022-08-25T08:33:24.323Z,8.18
2022-08-25T08:36:08.318Z,8.13
2022-08-25T08:38:37.545Z,8.55
2022-08-25T08:41:40.064Z,9.05
2022-08-25T08:44:42.504Z,8.55
2022-08-25T08:47:33.565Z,8.93
2022-08-25T08:50:11.529Z,8.63
2022-08-25T08:52:54.761Z,8.32
2022-08-25T08:55:33.113Z,8.02
2022-08-25T08:58:05.170Z,7.95
2022-08-25T09:00:37.309Z,7.70
2022-08-25T09:03:08.584Z,8.18
2022-08-25T09:05:46.685Z,8.18
2022-08-25T09:08:20.421Z,7.88
2022-08-25T09:11:16.288Z,8.48
2022-08-25T09:14:18.349Z,8.50
2022-08-25T09:16:58.468Z,6.90
2022-08-25T09:20:02.152Z,8.05
2022-08-25T09:22:35.927Z,7.70
2022-08-25T09:25:10.314Z,8.25
2022-08-25T09:28:13.488Z,7.40
2022-08-25T09:30:54.881Z,7.65
2022-08-25T09:33:23.910Z,8.73
2022-08-25T09:35:53.694Z,7.80
2022-08-25T09:38:21.123Z,8.57
2022-08-25T09:40:50.408Z,7.97
2022-08-25T09:43:22.534Z,7.75
2022-08-25T09:45:57.739Z,7.78
2022-08-25T09:48:40.691Z,8.00
2022-08-25T09:51:42.425Z,9.00
2022-08-25T09:54:12.365Z,8.98
2022-08-25T09:56:57.107Z,8.13
2022-08-25T09:59:34.841Z,7.70
2022-08-25T10:02:05.255Z,8.95
2022-08-25T10:04:34.360Z,9.60
2022-08-25T10:07:03.955Z,8.43
2022-08-25T10:09:40.306Z,8.38
2022-08-25T10:12:31.112Z,8.70
2022-08-25T10:14:57.723Z,8.85
2022-08-25T10:17:29.626Z,8.88
2022-08-25T10:20:11.994Z,8.85
2022-08-25T10:22:40.591Z,8.88
2022-08-25T10:25:10.104Z,7.93
2022-08-25T10:28:34.751Z,8.60
2022-08-25T10:31:15.852Z,9.27
2022-08-25T10:33:52.365Z,8.50
2022-08-25T10:36:28.440Z,8.48
2022-08-25T10:38:58.795Z,8.77
2022-08-25T10:41:46.851Z,8.80
2022-08-25T10:44:50.319Z,8.73
2022-08-25T10:47:29.717Z,7.82
2022-08-25T10:50:09.104Z,8.75
2022-08-25T10:53:02.015Z,8.25
2022-08-25T10:55:53.233Z,8.77
2022-08-25T10:58:37.750Z,7.82
2022-08-25T11:01:44.102Z,9.23
2022-08-25T11:04:25.458Z,9.45
2022-08-25T11:07:00.621Z,9.05
2022-08-25T11:09:33.508Z,8.48
2022-08-25T11:12:13.940Z,8.73
2022-08-25T11:14:49.486Z,9.80
2022-08-25T11:17:23.100Z,8.93
2022-08-25T11:19:54.717Z,8.50
2022-08-25T11:22:29.833Z,8.25
2022-08-25T11:25:07.324Z,8.90
2022-08-25T11:27:44.249Z,8.40
2022-08-25T11:30:14.774Z,10.13
2022-08-25T11:32:47.509Z,8.68
2022-08-25T11:35:18.084Z,8.48
2022-08-25T11:38:00.222Z,9.43
2022-08-25T11:40:50.690Z,8.38
2022-08-25T11:43:40.526Z,9.18
2022-08-25T11:46:39.323Z,8.27
2022-08-25T11:49:42.053Z,8.88
2022-08-25T11:52:34.605Z,8.98
2022-08-25T11:55:27.240Z,8.50
2022-08-25T11:58:34.002Z,9.75
2022-08-25T12:01:03.047Z,9.85
2022-08-25T12:03:32.391Z,9.52
2022-08-25T12:06:21.404Z,9.07
2022-08-25T12:09:13.641Z,9.70
2022-08-25T12:11:52.193Z,10.32
2022-08-25T12:14:21.617Z,9.85
2022-08-25T12:16:51.788Z,10.45
2022-08-25T12:19:30.864Z,9.50
2022-08-25T12:22:03.672Z,9.25
2022-08-25T12:24:47.790Z,9.15
2022-08-25T12:27:28.212Z,10.02
2022-08-25T12:30:06.023Z,9.48
2022-08-25T12:33:01.578Z,8.45
2022-08-25T12:35:53.318Z,10.32
2022-08-25T12:38:42.504Z,10.15
2022-08-25T12:41:24.226Z,8.70
2022-08-25T12:43:54.367Z,9.38
2022-08-25T12:46:25.724Z,8.95
2022-08-25T12:49:23.491Z,10.40
2022-08-25T12:52:06.662Z,10.48
2022-08-25T12:54:44.463Z,9.68
2022-08-25T12:57:40.287Z,9.57
2022-08-25T13:00:18.860Z,10.98
2022-08-25T13:03:04.025Z,9.10
2022-08-25T13:05:40.885Z,8.90
2022-08-25T13:08:39.526Z,9.50
2022-08-25T13:11:38.848Z,10.25
2022-08-25T13:14:17.816Z,9.40
2022-08-25T13:16:57.424Z,9.27
2022-08-25T13:19:25.621Z,9.60
2022-08-25T13:21:52.561Z,11.02
2022-08-25T13:24:29.620Z,9.38
2022-08-25T13:27:09.408Z,10.93
2022-08-25T13:29:50.284Z,10.95
2022-08-25T13:32:35.943Z,10.68
2022-08-25T13:35:24.675Z,10.70
2022-08-25T13:37:53.907Z,10.88
2022-08-25T13:40:26.693Z,9.73
2022-08-25T13:42:59.766Z,9.82
2022-08-25T13:45:31.615Z,9.45
2022-08-25T13:47:59.108Z,11.13
2022-08-25T13:50:26.465Z,9.20
2022-08-25T13:52:56.740Z,10.48
2022-08-25T13:55:38.125Z,11.05
2022-08-25T13:58:38.668Z,11.30
2022-08-25T14:01:23.104Z,9.68
2022-08-25T14:04:32.785Z,11.77
2022-08-25T14:07:20.960Z,10.77
2022-08-25T14:09:55.973Z,10.40
2022-08-25T14:12:37.643Z,10.10
2022-08-25T14:15:24.306Z,10.73
2022-08-25T14:18:07.891Z,11.27
2022-08-25T14:20:36.109Z,9.55
2022-08-25T14:23:07.857Z,8.48
2022-08-25T14:25:37.314Z,9.35
2022-08-25T14:28:15.617Z,8.68
2022-08-25T14:30:46.586Z,9.43
2022-08-25T14:33:15.225Z,9.30
2022-08-25T14:35:45.473Z,8.63
2022-08-25T14:38:14.541Z,8.27
2022-08-25T14:40:41.673Z,8.30
2022-08-25T14:43:09.912Z,7.97
2022-08-25T14:45:40.316Z,8.18
2022-08-25T14:48:10.876Z,7.40
2022-08-25T14:50:41.085Z,8.57
2022-08-25T14:53:10.283Z,9.63
2022-08-25T14:55:37.724Z,8.27
2022-08-25T14:58:04.742Z,8.80
2022-08-25T15:00:37.320Z,9.32
2022-08-25T15:03:04.115Z,9.27
2022-08-25T15:05:31.818Z,9.20
2022-08-25T15:08:16.944Z,9.00
2022-08-25T15:10:43.559Z,9.25
2022-08-25T15:13:10.683Z,9.35
2022-08-25T15:15:40.186Z,8.43
2022-08-25T15:18:19.789Z,9.45
2022-08-25T15:20:46.970Z,9.50
2022-08-25T15:23:16.750Z,9.13
2022-08-25T15:25:45.286Z,9.93
2022-08-25T15:28:12.783Z,9.55
2022-08-25T15:30:45.850Z,9.25
2022-08-25T15:33:13.414Z,9.73
2022-08-25T15:35:40.644Z,8.50
2022-08-25T15:38:08.066Z,8.68
2022-08-25T15:40:35.579Z,10.55
2022-08-25T15:43:02.374Z,11.45
2022-08-25T15:45:29.521Z,10.20
2022-08-25T15:47:57.323Z,10.75
2022-08-25T15:50:26.158Z,10.30
2022-08-25T15:52:52.955Z,9.40
2022-08-25T15:55:19.804Z,9.32
2022-08-25T15:57:47.784Z,9.25
2022-08-25T16:00:18.011Z,9.98
2022-08-25T16:02:45.706Z,9.93
2022-08-25T16:05:13.691Z,10.05
2022-08-25T16:07:42.886Z,10.60
2022-08-25T16:10:10.378Z,10.20
2022-08-25T16:12:37.976Z,10.88
2022-08-25T16:15:05.717Z,10.98
2022-08-25T16:17:32.434Z,9.68
2022-08-25T16:19:59.029Z,10.95
2022-08-25T16:22:26.007Z,11.10
2022-08-25T16:24:52.550Z,9.98
2022-08-25T16:27:19.684Z,10.35
2022-08-25T16:29:47.230Z,10.00
2022-08-25T16:32:14.631Z,8.52
2022-08-25T16:34:42.627Z,9.95
2022-08-25T16:37:11.137Z,10.07
2022-08-25T16:39:39.981Z,10.15
2022-08-25T16:42:07.925Z,9.80
2022-08-25T16:44:34.481Z,12.15
2022-08-25T16:47:01.481Z,9.55
2022-08-25T16:49:28.096Z,11.63
2022-08-25T16:51:57.543Z,10.60
2022-08-25T16:54:44.106Z,10.23
2022-08-25T16:57:10.798Z,9.35
2022-08-25T16:59:37.306Z,10.05
2022-08-25T17:02:04.115Z,8.65
2022-08-25T17:04:32.415Z,8.50
2022-08-25T17:06:59.786Z,9.98
2022-08-25T17:09:26.410Z,8.10
2022-08-25T17:11:56.706Z,8.85
2022-08-25T17:14:24.398Z,7.82
2022-08-25T17:16:54.573Z,8.93
2022-08-25T17:19:22.111Z,9.05
2022-08-25T17:21:50.810Z,8.98
2022-08-25T17:24:17.695Z,8.82
2022-08-25T17:26:47.248Z,10.10
2022-08-25T17:29:13.889Z,8.73
2022-08-25T17:31:40.596Z,10.23
2022-08-25T17:34:10.511Z,8.38
2022-08-25T17:36:37.374Z,9.25
2022-08-25T17:39:04.744Z,9.35
2022-08-25T17:41:32.508Z,8.40
2022-08-25T17:43:59.459Z,9.70
2022-08-25T17:46:26.104Z,9.55
2022-08-25T17:48:53.690Z,8.57
2022-08-25T17:51:21.110Z,9.85
2022-08-25T17:53:48.857Z,8.55
2022-08-25T17:56:21.005Z,8.95
2022-08-25T17:58:48.177Z,7.85
2022-08-25T18:01:27.904Z,10.20
2022-08-25T18:03:55.147Z,8.82
2022-08-25T18:06:24.169Z,9.63
2022-08-25T18:08:52.228Z,9.45
2022-08-25T18:11:23.593Z,8.70
2022-08-25T18:13:53.646Z,9.50
2022-08-25T18:16:20.996Z,8.43
2022-08-25T18:18:48.410Z,10.45
2022-08-25T18:21:17.186Z,8.65
2022-08-25T18:23:44.901Z,9.60
2022-08-25T18:26:13.563Z,9.93
2022-08-25T18:28:40.764Z,10.57
2022-08-25T18:31:12.174Z,9.98
2022-08-25T18:33:42.029Z,11.07
2022-08-25T18:36:09.243Z,10.43
2022-08-25T18:38:57.958Z,10.52
2022-08-25T18:41:26.033Z,9.55
2022-08-25T18:43:53.144Z,11.55
2022-08-25T18:46:19.873Z,10.75
2022-08-25T18:48:49.605Z,10.10
2022-08-25T18:51:22.897Z,10.45
2022-08-25T18:53:51.104Z,10.40
2022-08-25T18:56:18.742Z,10.90
2022-08-25T18:58:46.794Z,10.30
2022-08-25T19:01:15.599Z,11.35
2022-08-25T19:03:43.113Z,10.32
2022-08-25T19:06:09.865Z,10.65
2022-08-25T19:08:39.445Z,11.75
2022-08-25T19:11:09.731Z,11.43
2022-08-25T19:13:37.363Z,11.30
2022-08-25T19:16:29.893Z,13.13
2022-08-25T19:18:56.675Z,12.20
2022-08-25T19:21:25.088Z,11.57
2022-08-25T19:23:53.011Z,11.50
2022-08-25T19:26:20.538Z,11.35
2022-08-25T19:28:49.272Z,12.38
2022-08-25T19:31:22.005Z,12.25
2022-08-25T19:33:49.580Z,13.63
2022-08-25T19:36:18.866Z,12.82
2022-08-25T19:38:51.722Z,13.20
2022-08-25T19:41:19.230Z,13.60
2022-08-25T19:43:50.464Z,12.77
2022-08-25T19:48:51.533Z,12.93
2022-08-25T19:51:21.797Z,12.35
2022-08-25T19:53:52.280Z,12.30
2022-08-25T19:56:20.902Z,12.63
2022-08-25T19:58:47.850Z,11.68
2022-08-25T20:01:18.202Z,12.15
2022-08-25T20:03:45.076Z,12.52
2022-08-25T20:06:11.878Z,11.15
2022-08-25T20:08:42.552Z,12.45
2022-08-25T20:13:35.430Z,12.55
2022-08-25T20:16:04.167Z,11.50
2022-08-25T20:18:32.256Z,12.93
2022-08-25T20:20:58.842Z,12.13
2022-08-25T20:26:10.793Z,13.60
2022-08-25T20:28:37.674Z,11.07
2022-08-25T20:31:04.230Z,12.23
2022-08-25T20:33:32.906Z,12.20
2022-08-25T20:35:59.387Z,11.82
2022-08-25T20:40:56.150Z,13.00
2022-08-25T20:43:23.140Z,12.57
2022-08-25T20:45:49.832Z,13.07
2022-08-25T20:48:16.446Z,12.80
2022-08-25T20:50:42.926Z,14.05
2022-08-25T20:55:43.714Z,13.55
2022-08-25T20:58:10.658Z,14.05
2022-08-25T21:00:37.161Z,13.45
2022-08-25T21:05:30.174Z,14.93
2022-08-25T21:07:58.193Z,13.60
2022-08-25T21:12:53.534Z,13.00
2022-08-25T21:15:20.704Z,13.50
2022-08-25T21:17:53.124Z,13.60
2022-08-25T21:20:23.605Z,14.85
2022-08-25T21:22:50.974Z,14.80
2022-08-25T21:25:18.650Z,15.20
2022-08-25T21:27:45.644Z,14.75
2022-08-25T21:30:14.752Z,13.77
2022-08-25T21:32:53.350Z,14.52
2022-08-25T21:35:21.231Z,15.07
2022-08-25T21:37:49.316Z,14.80
2022-08-25T21:40:21.023Z,13.88
2022-08-25T21:42:48.962Z,13.90
2022-08-25T21:45:15.589Z,14.95
2022-08-25T21:50:11.189Z,14.50
2022-08-25T21:52:37.742Z,14.82
2022-08-25T21:55:06.322Z,15.18
2022-08-25T21:57:34.027Z,14.85
2022-08-25T22:03:01.125Z,15.18
2022-08-25T22:05:28.346Z,15.50
2022-08-25T22:07:55.736Z,15.45
2022-08-25T22:10:22.686Z,14.82
2022-08-25T22:12:49.810Z,15.98
2022-08-25T22:15:17.988Z,14.57
2022-08-25T22:17:45.376Z,15.70
2022-08-25T22:20:17.135Z,15.68
2022-08-25T22:22:43.808Z,15.50
2022-08-25T22:25:13.035Z,15.20
2022-08-25T22:27:39.541Z,16.45
2022-08-25T22:32:33.102Z,15.87
2022-08-25T22:37:26.207Z,14.55
2022-08-25T22:39:53.017Z,17.15
2022-08-25T22:42:19.911Z,15.23
2022-08-25T22:44:53.800Z,15.98
2022-08-25T22:47:20.484Z,15.63
2022-08-25T22:49:47.076Z,15.18
2022-08-25T22:52:14.348Z,16.70
2022-08-25T22:57:07.909Z,14.88
2022-08-25T23:02:01.058Z,15.13
2022-08-25T23:04:27.788Z,15.88
2022-08-25T23:06:54.494Z,16.02
2022-08-25T23:09:21.690Z,14.88
2022-08-25T23:11:48.879Z,15.40
2022-08-25T23:14:18.195Z,16.20
2022-08-25T23:16:44.816Z,15.65
2022-08-25T23:21:59.927Z,15.95
2022-08-25T23:24:29.760Z,17.23
2022-08-25T23:27:02.022Z,16.58
2022-08-25T23:29:30.077Z,15.68
2022-08-25T23:31:57.954Z,15.50
2022-08-25T23:34:24.838Z,16.35
2022-08-25T23:36:51.721Z,14.80
2022-08-25T23:39:18.682Z,17.02
2022-08-25T23:41:48.959Z,15.38
2022-08-25T23:44:17.168Z,16.48
2022-08-25T23:46:44.876Z,15.55
2022-08-25T23:49:12.305Z,15.60
2022-08-25T23:51:41.044Z,16.48
2022-08-25T23:54:10.879Z,17.67
2022-08-25T23:56:44.602Z,16.77
2022-08-25T23:59:12.979Z,17.15
